sensor_id;sensor_type;location;lat;lon;timestamp;pressure;altitude;pressure_sealevel;temperature;humidity
15308;BME280;7755;52.208;6.964;2023-03-31T00:00:32;100005.72;;;11.20;100.00
15308;BME280;7755;52.208;6.964;2023-03-31T00:04:37;99998.31;;;11.15;100.00
15308;BME280;7755;52.208;6.964;2023-03-31T00:08:40;99985.53;;;11.11;100.00
15308;BME280;7755;52.208;6.964;2023-03-31T00:12:43;99984.13;;;11.08;100.00
15308;BME280;7755;52.208;6.964;2023-03-31T00:16:48;99975.69;;;11.05;100.00
15308;BME280;7755;52.208;6.964;2023-03-31T00:20:52;99962.88;;;11.00;100.00
15308;BME280;7755;52.208;6.964;2023-03-31T00:24:55;99976.16;;;10.97;100.00
15308;BME280;7755;52.208;6.964;2023-03-31T00:28:59;99956.53;;;10.89;100.00
15308;BME280;7755;52.208;6.964;2023-03-31T00:33:02;99949.97;;;10.85;100.00
15308;BME280;7755;52.208;6.964;2023-03-31T00:37:06;99956.75;;;10.83;100.00
15308;BME280;7755;52.208;6.964;2023-03-31T00:41:10;99944.19;;;10.77;100.00
15308;BME280;7755;52.208;6.964;2023-03-31T00:45:24;99939.28;;;10.74;100.00
15308;BME280;7755;52.208;6.964;2023-03-31T00:49:32;99927.03;;;10.71;100.00
15308;BME280;7755;52.208;6.964;2023-03-31T00:53:36;99919.13;;;10.70;100.00
15308;BME280;7755;52.208;6.964;2023-03-31T00:57:40;99916.72;;;10.73;100.00
15308;BME280;7755;52.208;6.964;2023-03-31T01:01:46;99912.63;;;10.71;100.00
15308;BME280;7755;52.208;6.964;2023-03-31T01:05:54;99909.91;;;10.71;100.00
15308;BME280;7755;52.208;6.964;2023-03-31T01:10:01;99888.16;;;10.71;100.00
15308;BME280;7755;52.208;6.964;2023-03-31T01:14:05;99884.09;;;10.73;100.00
15308;BME280;7755;52.208;6.964;2023-03-31T01:18:08;99877.56;;;10.74;100.00
15308;BME280;7755;52.208;6.964;2023-03-31T01:22:44;99866.97;;;10.73;100.00
15308;BME280;7755;52.208;6.964;2023-03-31T01:27:09;99867.50;;;10.75;100.00
15308;BME280;7755;52.208;6.964;2023-03-31T01:31:45;99861.81;;;10.76;100.00
15308;BME280;7755;52.208;6.964;2023-03-31T01:36:13;99855.81;;;10.74;100.00
15308;BME280;7755;52.208;6.964;2023-03-31T01:40:33;99851.75;;;10.77;100.00
15308;BME280;7755;52.208;6.964;2023-03-31T01:44:43;99839.81;;;10.78;100.00
15308;BME280;7755;52.208;6.964;2023-03-31T01:48:53;99842.00;;;10.81;100.00
15308;BME280;7755;52.208;6.964;2023-03-31T01:53:03;99819.41;;;10.80;100.00
15308;BME280;7755;52.208;6.964;2023-03-31T01:57:12;99819.41;;;10.80;100.00
15308;BME280;7755;52.208;6.964;2023-03-31T02:01:20;99810.72;;;10.78;100.00
15308;BME280;7755;52.208;6.964;2023-03-31T02:05:31;99809.63;;;10.79;100.00
15308;BME280;7755;52.208;6.964;2023-03-31T02:09:39;99804.19;;;10.79;100.00
15308;BME280;7755;52.208;6.964;2023-03-31T02:13:48;99783.53;;;10.78;100.00
15308;BME280;7755;52.208;6.964;2023-03-31T02:17:55;99790.56;;;10.74;100.00
15308;BME280;7755;52.208;6.964;2023-03-31T02:22:01;99779.72;;;10.79;100.00
15308;BME280;7755;52.208;6.964;2023-03-31T02:26:09;99768.31;;;10.77;100.00
15308;BME280;7755;52.208;6.964;2023-03-31T02:30:16;99770.19;;;10.77;100.00
15308;BME280;7755;52.208;6.964;2023-03-31T02:34:19;99762.03;;;10.77;100.00
15308;BME280;7755;52.208;6.964;2023-03-31T02:38:22;99749.28;;;10.77;100.00
15308;BME280;7755;52.208;6.964;2023-03-31T02:42:25;99743.84;;;10.77;100.00
15308;BME280;7755;52.208;6.964;2023-03-31T02:46:30;99742.75;;;10.78;100.00
15308;BME280;7755;52.208;6.964;2023-03-31T02:50:48;99716.06;;;10.75;100.00
15308;BME280;7755;52.208;6.964;2023-03-31T02:55:06;99707.66;;;10.77;100.00
15308;BME280;7755;52.208;6.964;2023-03-31T02:59:23;99690.28;;;10.78;100.00
15308;BME280;7755;52.208;6.964;2023-03-31T03:03:42;99679.13;;;10.79;100.00
15308;BME280;7755;52.208;6.964;2023-03-31T03:07:55;99672.91;;;10.84;100.00
15308;BME280;7755;52.208;6.964;2023-03-31T03:12:07;99659.31;;;10.84;100.00
15308;BME280;7755;52.208;6.964;2023-03-31T03:16:17;99652.50;;;10.86;100.00
15308;BME280;7755;52.208;6.964;2023-03-31T03:20:24;99641.06;;;10.89;100.00
15308;BME280;7755;52.208;6.964;2023-03-31T03:24:27;99639.19;;;10.85;100.00
15308;BME280;7755;52.208;6.964;2023-03-31T03:28:30;99615.78;;;10.84;100.00
15308;BME280;7755;52.208;6.964;2023-03-31T03:32:33;99605.19;;;10.77;100.00
15308;BME280;7755;52.208;6.964;2023-03-31T03:36:38;99601.06;;;10.75;100.00
15308;BME280;7755;52.208;6.964;2023-03-31T03:40:41;99583.66;;;10.76;100.00
15308;BME280;7755;52.208;6.964;2023-03-31T03:44:43;99578.22;;;10.76;100.00
15308;BME280;7755;52.208;6.964;2023-03-31T03:48:46;99569.53;;;10.74;100.00
15308;BME280;7755;52.208;6.964;2023-03-31T03:52:50;99563.28;;;10.73;100.00
15308;BME280;7755;52.208;6.964;2023-03-31T03:56:53;99566.28;;;10.72;100.00
15308;BME280;7755;52.208;6.964;2023-03-31T04:00:56;99559.47;;;10.74;100.00
15308;BME280;7755;52.208;6.964;2023-03-31T04:04:59;99549.69;;;10.73;100.00
15308;BME280;7755;52.208;6.964;2023-03-31T04:09:03;99540.75;;;10.78;100.00
15308;BME280;7755;52.208;6.964;2023-03-31T04:13:06;99531.78;;;10.77;100.00
15308;BME280;7755;52.208;6.964;2023-03-31T04:17:09;99519.25;;;10.81;100.00
15308;BME280;7755;52.208;6.964;2023-03-31T04:21:16;99503.22;;;10.80;100.00
15308;BME280;7755;52.208;6.964;2023-03-31T04:25:25;99507.31;;;10.77;100.00
15308;BME280;7755;52.208;6.964;2023-03-31T04:29:31;99495.59;;;10.77;100.00
15308;BME280;7755;52.208;6.964;2023-03-31T04:33:34;99491.53;;;10.79;100.00
15308;BME280;7755;52.208;6.964;2023-03-31T04:37:39;99474.69;;;10.77;100.00
15308;BME280;7755;52.208;6.964;2023-03-31T04:41:43;99460.25;;;10.77;100.00
15308;BME280;7755;52.208;6.964;2023-03-31T04:45:46;99457.00;;;10.75;100.00
15308;BME280;7755;52.208;6.964;2023-03-31T04:49:49;99455.34;;;10.74;100.00
15308;BME280;7755;52.208;6.964;2023-03-31T04:53:52;99449.94;;;10.74;100.00
15308;BME280;7755;52.208;6.964;2023-03-31T04:57:56;99445.84;;;10.76;100.00
15308;BME280;7755;52.208;6.964;2023-03-31T05:01:58;99427.91;;;10.75;100.00
15308;BME280;7755;52.208;6.964;2023-03-31T05:06:01;99439.34;;;10.77;100.00
15308;BME280;7755;52.208;6.964;2023-03-31T05:10:05;99428.72;;;10.76;100.00
15308;BME280;7755;52.208;6.964;2023-03-31T05:14:09;99428.19;;;10.74;100.00
15308;BME280;7755;52.208;6.964;2023-03-31T05:18:12;99414.59;;;10.74;100.00
15308;BME280;7755;52.208;6.964;2023-03-31T05:22:15;99404.28;;;10.71;100.00
15308;BME280;7755;52.208;6.964;2023-03-31T05:26:20;99401.28;;;10.72;100.00
15308;BME280;7755;52.208;6.964;2023-03-31T05:30:27;99387.41;;;10.69;100.00
15308;BME280;7755;52.208;6.964;2023-03-31T05:34:30;99367.84;;;10.66;100.00
15308;BME280;7755;52.208;6.964;2023-03-31T05:38:33;99358.06;;;10.71;100.00
15308;BME280;7755;52.208;6.964;2023-03-31T05:42:36;99349.06;;;10.70;100.00
15308;BME280;7755;52.208;6.964;2023-03-31T05:46:40;99339.03;;;10.71;100.00
15308;BME280;7755;52.208;6.964;2023-03-31T05:50:43;99336.56;;;10.69;100.00
15308;BME280;7755;52.208;6.964;2023-03-31T05:54:46;99327.31;;;10.70;100.00
15308;BME280;7755;52.208;6.964;2023-03-31T05:58:48;99313.47;;;10.72;100.00
15308;BME280;7755;52.208;6.964;2023-03-31T06:02:53;99307.75;;;10.73;100.00
15308;BME280;7755;52.208;6.964;2023-03-31T06:06:55;99302.31;;;10.78;100.00
15308;BME280;7755;52.208;6.964;2023-03-31T06:10:58;99291.16;;;10.85;100.00
15308;BME280;7755;52.208;6.964;2023-03-31T06:15:01;99282.69;;;10.91;100.00
15308;BME280;7755;52.208;6.964;2023-03-31T06:19:05;99267.78;;;10.84;100.00
15308;BME280;7755;52.208;6.964;2023-03-31T06:23:08;99265.34;;;10.77;100.00
15308;BME280;7755;52.208;6.964;2023-03-31T06:27:11;99261.25;;;10.80;100.00
15308;BME280;7755;52.208;6.964;2023-03-31T06:31:15;99263.97;;;10.85;100.00
15308;BME280;7755;52.208;6.964;2023-03-31T06:35:20;99258.75;;;10.88;100.00
15308;BME280;7755;52.208;6.964;2023-03-31T06:39:23;99255.81;;;10.85;100.00
15308;BME280;7755;52.208;6.964;2023-03-31T06:43:28;99248.97;;;10.87;100.00
15308;BME280;7755;52.208;6.964;2023-03-31T06:47:31;99233.22;;;10.84;100.00
15308;BME280;7755;52.208;6.964;2023-03-31T06:51:35;99234.84;;;10.85;100.00
15308;BME280;7755;52.208;6.964;2023-03-31T06:55:38;99222.59;;;10.88;100.00
15308;BME280;7755;52.208;6.964;2023-03-31T06:59:41;99219.88;;;10.93;100.00
15308;BME280;7755;52.208;6.964;2023-03-31T07:03:43;99219.59;;;10.94;100.00
15308;BME280;7755;52.208;6.964;2023-03-31T07:07:48;99211.94;;;10.97;100.00
15308;BME280;7755;52.208;6.964;2023-03-31T07:11:51;99216.56;;;11.01;100.00
15308;BME280;7755;52.208;6.964;2023-03-31T07:15:57;99198.84;;;11.04;100.00
15308;BME280;7755;52.208;6.964;2023-03-31T07:20:00;99195.81;;;11.15;100.00
15308;BME280;7755;52.208;6.964;2023-03-31T07:24:05;99186.53;;;11.16;100.00
15308;BME280;7755;52.208;6.964;2023-03-31T07:28:08;99191.13;;;11.26;100.00
15308;BME280;7755;52.208;6.964;2023-03-31T07:32:11;99187.00;;;11.29;100.00
15308;BME280;7755;52.208;6.964;2023-03-31T07:36:14;99184.59;;;11.27;100.00
15308;BME280;7755;52.208;6.964;2023-03-31T07:40:22;99193.81;;;11.31;100.00
15308;BME280;7755;52.208;6.964;2023-03-31T07:44:25;99189.44;;;11.30;100.00
15308;BME280;7755;52.208;6.964;2023-03-31T07:48:27;99190.25;;;11.31;100.00
15308;BME280;7755;52.208;6.964;2023-03-31T07:52:30;99183.47;;;11.28;100.00
15308;BME280;7755;52.208;6.964;2023-03-31T07:56:34;99190.84;;;11.28;100.00
15308;BME280;7755;52.208;6.964;2023-03-31T08:00:37;99173.69;;;11.27;100.00
15308;BME280;7755;52.208;6.964;2023-03-31T08:04:40;99168.56;;;11.26;100.00
15308;BME280;7755;52.208;6.964;2023-03-31T08:08:44;99176.41;;;11.27;100.00
15308;BME280;7755;52.208;6.964;2023-03-31T08:12:48;99169.66;;;11.25;100.00
15308;BME280;7755;52.208;6.964;2023-03-31T08:16:51;99167.69;;;11.30;100.00
15308;BME280;7755;52.208;6.964;2023-03-31T08:20:55;99160.06;;;11.32;100.00
15308;BME280;7755;52.208;6.964;2023-03-31T08:24:58;99163.31;;;11.34;100.00
15308;BME280;7755;52.208;6.964;2023-03-31T08:29:02;99154.84;;;11.36;100.00
15308;BME280;7755;52.208;6.964;2023-03-31T08:33:05;99151.63;;;11.34;100.00
15308;BME280;7755;52.208;6.964;2023-03-31T08:37:09;99152.94;;;11.36;100.00
15308;BME280;7755;52.208;6.964;2023-03-31T08:45:39;99160.88;;;11.33;100.00
15308;BME280;7755;52.208;6.964;2023-03-31T08:49:45;99149.41;;;11.36;100.00
15308;BME280;7755;52.208;6.964;2023-03-31T08:53:56;99152.13;;;11.36;100.00
15308;BME280;7755;52.208;6.964;2023-03-31T08:58:05;99132.25;;;11.40;100.00
15308;BME280;7755;52.208;6.964;2023-03-31T09:02:20;99137.59;;;11.51;100.00
15308;BME280;7755;52.208;6.964;2023-03-31T09:06:33;99143.63;;;11.47;100.00
15308;BME280;7755;52.208;6.964;2023-03-31T09:10:44;99125.69;;;11.41;100.00
15308;BME280;7755;52.208;6.964;2023-03-31T09:14:54;99120.28;;;11.36;100.00
15308;BME280;7755;52.208;6.964;2023-03-31T09:19:11;99114.06;;;11.31;100.00
15308;BME280;7755;52.208;6.964;2023-03-31T09:23:23;99112.72;;;11.33;100.00
15308;BME280;7755;52.208;6.964;2023-03-31T09:27:30;99100.25;;;11.27;100.00
15308;BME280;7755;52.208;6.964;2023-03-31T09:31:38;99098.63;;;11.26;100.00
15308;BME280;7755;52.208;6.964;2023-03-31T09:35:45;99091.28;;;11.27;100.00
15308;BME280;7755;52.208;6.964;2023-03-31T09:39:50;99085.88;;;11.21;100.00
15308;BME280;7755;52.208;6.964;2023-03-31T09:43:53;99090.50;;;11.21;100.00
15308;BME280;7755;52.208;6.964;2023-03-31T09:47:58;99077.91;;;11.30;100.00
15308;BME280;7755;52.208;6.964;2023-03-31T09:52:06;99072.19;;;11.32;100.00
15308;BME280;7755;52.208;6.964;2023-03-31T09:56:31;99067.81;;;11.31;100.00
15308;BME280;7755;52.208;6.964;2023-03-31T10:00:36;99065.56;;;11.38;100.00
15308;BME280;7755;52.208;6.964;2023-03-31T10:04:44;99054.66;;;11.43;100.00
15308;BME280;7755;52.208;6.964;2023-03-31T10:08:50;99066.09;;;11.45;100.00
15308;BME280;7755;52.208;6.964;2023-03-31T10:12:56;99055.13;;;11.50;100.00
15308;BME280;7755;52.208;6.964;2023-03-31T10:17:02;99044.03;;;11.70;100.00
15308;BME280;7755;52.208;6.964;2023-03-31T10:21:06;99042.47;;;11.93;100.00
15308;BME280;7755;52.208;6.964;2023-03-31T10:25:21;99046.41;;;12.25;100.00
15308;BME280;7755;52.208;6.964;2023-03-31T10:29:29;99039.97;;;12.58;100.00
15308;BME280;7755;52.208;6.964;2023-03-31T10:33:33;99039.28;;;12.85;100.00
15308;BME280;7755;52.208;6.964;2023-03-31T10:37:42;99042.88;;;13.00;100.00
15308;BME280;7755;52.208;6.964;2023-03-31T10:41:50;99040.59;;;13.07;100.00
15308;BME280;7755;52.208;6.964;2023-03-31T10:45:56;99045.59;;;13.19;100.00
15308;BME280;7755;52.208;6.964;2023-03-31T10:50:08;99044.34;;;13.30;100.00
15308;BME280;7755;52.208;6.964;2023-03-31T10:54:14;99041.75;;;13.38;100.00
15308;BME280;7755;52.208;6.964;2023-03-31T10:58:29;99039.53;;;13.54;100.00
15308;BME280;7755;52.208;6.964;2023-03-31T11:02:56;99029.34;;;13.74;100.00
15308;BME280;7755;52.208;6.964;2023-03-31T11:07:06;99032.22;;;13.82;100.00
15308;BME280;7755;52.208;6.964;2023-03-31T11:11:23;99035.75;;;13.97;100.00
15308;BME280;7755;52.208;6.964;2023-03-31T11:15:35;99028.94;;;14.08;100.00
15308;BME280;7755;52.208;6.964;2023-03-31T11:19:51;99025.63;;;14.11;100.00
15308;BME280;7755;52.208;6.964;2023-03-31T11:24:03;99017.50;;;14.19;100.00
15308;BME280;7755;52.208;6.964;2023-03-31T11:28:33;99014.44;;;14.48;100.00
15308;BME280;7755;52.208;6.964;2023-03-31T11:32:47;99013.63;;;14.48;100.00
15308;BME280;7755;52.208;6.964;2023-03-31T11:37:22;99011.00;;;14.57;100.00
15308;BME280;7755;52.208;6.964;2023-03-31T11:41:33;99006.34;;;14.57;100.00
15308;BME280;7755;52.208;6.964;2023-03-31T11:45:41;99004.47;;;14.66;100.00
15308;BME280;7755;52.208;6.964;2023-03-31T11:49:52;99004.53;;;14.75;100.00
15308;BME280;7755;52.208;6.964;2023-03-31T11:53:58;98996.63;;;14.96;100.00
15308;BME280;7755;52.208;6.964;2023-03-31T11:58:06;99002.84;;;15.10;100.00
15308;BME280;7755;52.208;6.964;2023-03-31T12:02:16;98992.47;;;14.98;100.00
15308;BME280;7755;52.208;6.964;2023-03-31T12:06:26;99001.81;;;14.97;99.58
15308;BME280;7755;52.208;6.964;2023-03-31T12:10:32;98991.78;;;14.93;97.62
15308;BME280;7755;52.208;6.964;2023-03-31T12:14:39;98993.59;;;14.97;99.64
15308;BME280;7755;52.208;6.964;2023-03-31T12:18:56;98981.16;;;14.91;96.39
15308;BME280;7755;52.208;6.964;2023-03-31T12:23:10;98982.97;;;14.73;96.93
15308;BME280;7755;52.208;6.964;2023-03-31T12:27:17;98981.66;;;14.71;99.02
15308;BME280;7755;52.208;6.964;2023-03-31T12:31:23;98981.94;;;14.69;98.46
15308;BME280;7755;52.208;6.964;2023-03-31T12:35:34;98978.47;;;14.55;99.87
15308;BME280;7755;52.208;6.964;2023-03-31T12:39:51;98973.63;;;14.52;99.22
15308;BME280;7755;52.208;6.964;2023-03-31T12:44:11;98966.28;;;14.61;97.90
15308;BME280;7755;52.208;6.964;2023-03-31T12:48:33;98969.44;;;14.55;98.38
15308;BME280;7755;52.208;6.964;2023-03-31T12:52:47;98971.19;;;14.51;97.93
15308;BME280;7755;52.208;6.964;2023-03-31T12:57:12;98968.75;;;14.49;98.75
15308;BME280;7755;52.208;6.964;2023-03-31T13:01:19;98958.94;;;14.48;98.93
15308;BME280;7755;52.208;6.964;2023-03-31T13:05:44;98952.06;;;14.37;97.59
15308;BME280;7755;52.208;6.964;2023-03-31T13:09:48;98950.38;;;14.27;98.45
15308;BME280;7755;52.208;6.964;2023-03-31T13:14:00;98952.78;;;14.29;100.00
15308;BME280;7755;52.208;6.964;2023-03-31T13:18:04;98936.34;;;14.42;97.64
15308;BME280;7755;52.208;6.964;2023-03-31T13:22:28;98940.69;;;14.57;97.25
15308;BME280;7755;52.208;6.964;2023-03-31T13:26:36;98929.97;;;14.69;95.89
15308;BME280;7755;52.208;6.964;2023-03-31T13:30:49;98929.63;;;14.85;96.23
15308;BME280;7755;52.208;6.964;2023-03-31T13:34:58;98937.31;;;14.83;92.94
15308;BME280;7755;52.208;6.964;2023-03-31T13:48:49;98925.69;;;14.55;93.06
15308;BME280;7755;52.208;6.964;2023-03-31T13:52:57;98913.72;;;14.64;94.80
15308;BME280;7755;52.208;6.964;2023-03-31T14:02:19;98923.06;;;14.94;92.20
15308;BME280;7755;52.208;6.964;2023-03-31T14:06:33;98912.34;;;15.07;91.02
15308;BME280;7755;52.208;6.964;2023-03-31T14:10:39;98894.13;;;15.02;89.56
15308;BME280;7755;52.208;6.964;2023-03-31T14:14:42;98907.56;;;14.90;88.37
15308;BME280;7755;52.208;6.964;2023-03-31T14:18:49;98905.81;;;14.85;89.16
15308;BME280;7755;52.208;6.964;2023-03-31T14:23:03;98900.13;;;14.82;91.63
15308;BME280;7755;52.208;6.964;2023-03-31T14:27:17;98895.97;;;14.62;91.62
15308;BME280;7755;52.208;6.964;2023-03-31T14:31:27;98892.81;;;14.46;93.59
15308;BME280;7755;52.208;6.964;2023-03-31T14:35:39;98881.47;;;14.39;93.51
15308;BME280;7755;52.208;6.964;2023-03-31T14:39:48;98890.13;;;14.32;94.20
15308;BME280;7755;52.208;6.964;2023-03-31T14:44:00;98877.03;;;14.29;94.67
15308;BME280;7755;52.208;6.964;2023-03-31T14:48:10;98878.97;;;14.29;95.65
15308;BME280;7755;52.208;6.964;2023-03-31T14:52:17;98871.09;;;14.27;95.48
15308;BME280;7755;52.208;6.964;2023-03-31T14:56:29;98872.31;;;14.21;93.50
15308;BME280;7755;52.208;6.964;2023-03-31T15:00:35;98864.16;;;14.07;94.50
15308;BME280;7755;52.208;6.964;2023-03-31T15:04:41;98879.91;;;13.88;95.76
15308;BME280;7755;52.208;6.964;2023-03-31T15:08:56;98881.06;;;13.59;100.00
15308;BME280;7755;52.208;6.964;2023-03-31T15:13:01;98882.69;;;13.33;100.00
15308;BME280;7755;52.208;6.964;2023-03-31T15:17:16;98880.09;;;13.28;100.00
15308;BME280;7755;52.208;6.964;2023-03-31T15:21:20;98869.47;;;13.26;100.00
15308;BME280;7755;52.208;6.964;2023-03-31T15:25:27;98879.06;;;13.24;100.00
15308;BME280;7755;52.208;6.964;2023-03-31T15:29:35;98867.34;;;13.23;100.00
15308;BME280;7755;52.208;6.964;2023-03-31T15:33:39;98866.41;;;13.14;100.00
15308;BME280;7755;52.208;6.964;2023-03-31T15:37:43;98876.59;;;13.08;100.00
15308;BME280;7755;52.208;6.964;2023-03-31T15:41:46;98875.09;;;13.02;100.00
15308;BME280;7755;52.208;6.964;2023-03-31T15:45:52;98854.38;;;13.01;100.00
15308;BME280;7755;52.208;6.964;2023-03-31T15:49:57;98866.59;;;13.04;100.00
15308;BME280;7755;52.208;6.964;2023-03-31T15:54:27;98853.84;;;12.99;100.00
15308;BME280;7755;52.208;6.964;2023-03-31T15:58:53;98856.38;;;12.96;100.00
15308;BME280;7755;52.208;6.964;2023-03-31T16:02:59;98854.13;;;12.84;100.00
15308;BME280;7755;52.208;6.964;2023-03-31T16:07:06;98855.03;;;12.79;100.00
15308;BME280;7755;52.208;6.964;2023-03-31T16:11:13;98859.88;;;12.69;100.00
15308;BME280;7755;52.208;6.964;2023-03-31T16:15:20;98846.63;;;12.62;100.00
15308;BME280;7755;52.208;6.964;2023-03-31T16:19:30;98846.13;;;12.60;100.00
15308;BME280;7755;52.208;6.964;2023-03-31T16:23:36;98842.38;;;12.56;100.00
15308;BME280;7755;52.208;6.964;2023-03-31T16:27:43;98844.28;;;12.55;100.00
15308;BME280;7755;52.208;6.964;2023-03-31T16:31:47;98845.41;;;12.54;100.00
15308;BME280;7755;52.208;6.964;2023-03-31T16:35:53;98844.59;;;12.54;100.00
15308;BME280;7755;52.208;6.964;2023-03-31T16:39:57;98847.59;;;12.52;100.00
15308;BME280;7755;52.208;6.964;2023-03-31T16:43:59;98845.19;;;12.51;100.00
15308;BME280;7755;52.208;6.964;2023-03-31T16:48:02;98833.16;;;12.52;100.00
15308;BME280;7755;52.208;6.964;2023-03-31T16:52:17;98841.56;;;12.55;100.00
15308;BME280;7755;52.208;6.964;2023-03-31T16:56:20;98848.41;;;12.53;100.00
15308;BME280;7755;52.208;6.964;2023-03-31T17:00:23;98841.34;;;12.52;100.00
15308;BME280;7755;52.208;6.964;2023-03-31T17:04:26;98849.72;;;12.42;100.00
15308;BME280;7755;52.208;6.964;2023-03-31T17:08:31;98853.19;;;12.28;100.00
15308;BME280;7755;52.208;6.964;2023-03-31T17:12:34;98842.97;;;12.20;100.00
15308;BME280;7755;52.208;6.964;2023-03-31T17:16:37;98851.53;;;12.14;100.00
15308;BME280;7755;52.208;6.964;2023-03-31T17:20:49;98841.19;;;12.11;100.00
15308;BME280;7755;52.208;6.964;2023-03-31T17:24:53;98850.84;;;12.03;100.00
15308;BME280;7755;52.208;6.964;2023-03-31T17:28:58;98847.41;;;11.97;100.00
15308;BME280;7755;52.208;6.964;2023-03-31T17:33:01;98840.34;;;11.96;100.00
15308;BME280;7755;52.208;6.964;2023-03-31T17:37:04;98848.81;;;11.95;100.00
15308;BME280;7755;52.208;6.964;2023-03-31T17:41:10;98851.53;;;11.95;100.00
15308;BME280;7755;52.208;6.964;2023-03-31T17:45:14;98847.50;;;11.92;100.00
15308;BME280;7755;52.208;6.964;2023-03-31T17:49:17;98850.59;;;11.86;100.00
15308;BME280;7755;52.208;6.964;2023-03-31T17:53:20;98846.81;;;11.82;100.00
15308;BME280;7755;52.208;6.964;2023-03-31T17:57:24;98851.66;;;11.85;100.00
15308;BME280;7755;52.208;6.964;2023-03-31T18:01:27;98857.72;;;11.82;100.00
15308;BME280;7755;52.208;6.964;2023-03-31T18:05:30;98856.91;;;11.81;100.00
15308;BME280;7755;52.208;6.964;2023-03-31T18:09:34;98851.50;;;11.76;100.00
15308;BME280;7755;52.208;6.964;2023-03-31T18:13:38;98858.72;;;11.67;100.00
15308;BME280;7755;52.208;6.964;2023-03-31T18:17:41;98855.75;;;11.63;100.00
15308;BME280;7755;52.208;6.964;2023-03-31T18:21:44;98848.69;;;11.62;100.00
15308;BME280;7755;52.208;6.964;2023-03-31T18:25:47;98850.34;;;11.58;100.00
15308;BME280;7755;52.208;6.964;2023-03-31T18:29:51;98856.75;;;11.48;100.00
15308;BME280;7755;52.208;6.964;2023-03-31T18:33:54;98854.91;;;11.44;100.00
15308;BME280;7755;52.208;6.964;2023-03-31T18:37:58;98862.03;;;11.40;100.00
15308;BME280;7755;52.208;6.964;2023-03-31T18:42:01;98859.88;;;11.37;100.00
15308;BME280;7755;52.208;6.964;2023-03-31T18:46:06;98870.56;;;11.33;100.00
15308;BME280;7755;52.208;6.964;2023-03-31T18:50:10;98869.81;;;11.28;100.00
15308;BME280;7755;52.208;6.964;2023-03-31T18:54:14;98867.94;;;11.23;100.00
15308;BME280;7755;52.208;6.964;2023-03-31T18:58:17;98870.78;;;11.13;100.00
15308;BME280;7755;52.208;6.964;2023-03-31T19:02:21;98868.88;;;11.13;100.00
15308;BME280;7755;52.208;6.964;2023-03-31T19:06:25;98870.56;;;11.09;100.00
15308;BME280;7755;52.208;6.964;2023-03-31T19:10:28;98865.91;;;11.10;100.00
15308;BME280;7755;52.208;6.964;2023-03-31T19:14:31;98870.56;;;11.09;100.00
15308;BME280;7755;52.208;6.964;2023-03-31T19:18:38;98859.16;;;11.07;100.00
15308;BME280;7755;52.208;6.964;2023-03-31T19:22:41;98864.34;;;11.04;100.00
15308;BME280;7755;52.208;6.964;2023-03-31T19:26:45;98865.25;;;10.99;100.00
15308;BME280;7755;52.208;6.964;2023-03-31T19:30:48;98867.72;;;10.96;100.00
15308;BME280;7755;52.208;6.964;2023-03-31T19:34:53;98869.63;;;10.95;100.00
15308;BME280;7755;52.208;6.964;2023-03-31T19:38:56;98861.75;;;10.93;100.00
15308;BME280;7755;52.208;6.964;2023-03-31T19:42:59;98859.34;;;10.92;100.00
15308;BME280;7755;52.208;6.964;2023-03-31T19:47:02;98858.56;;;10.86;100.00
15308;BME280;7755;52.208;6.964;2023-03-31T19:51:08;98861.81;;;10.88;100.00
15308;BME280;7755;52.208;6.964;2023-03-31T19:55:11;98854.69;;;10.92;100.00
15308;BME280;7755;52.208;6.964;2023-03-31T19:59:14;98850.38;;;10.91;100.00
15308;BME280;7755;52.208;6.964;2023-03-31T20:03:17;98844.94;;;10.91;100.00
15308;BME280;7755;52.208;6.964;2023-03-31T20:07:21;98842.78;;;10.88;100.00
15308;BME280;7755;52.208;6.964;2023-03-31T20:11:25;98835.50;;;10.84;100.00
15308;BME280;7755;52.208;6.964;2023-03-31T20:15:28;98832.81;;;10.79;100.00
15308;BME280;7755;52.208;6.964;2023-03-31T20:19:32;98832.03;;;10.78;100.00
15308;BME280;7755;52.208;6.964;2023-03-31T20:23:38;98824.13;;;10.77;100.00
15308;BME280;7755;52.208;6.964;2023-03-31T20:27:41;98825.47;;;10.79;100.00
15308;BME280;7755;52.208;6.964;2023-03-31T20:31:44;98835.53;;;10.79;100.00
15308;BME280;7755;52.208;6.964;2023-03-31T20:35:47;98827.41;;;10.79;100.00
15308;BME280;7755;52.208;6.964;2023-03-31T20:39:51;98827.41;;;10.79;100.00
15308;BME280;7755;52.208;6.964;2023-03-31T20:43:55;98827.72;;;10.72;100.00
15308;BME280;7755;52.208;6.964;2023-03-31T20:47:58;98829.34;;;10.73;100.00
15308;BME280;7755;52.208;6.964;2023-03-31T20:52:01;98831.25;;;10.73;100.00
15308;BME280;7755;52.208;6.964;2023-03-31T20:56:06;98830.16;;;10.74;100.00
15308;BME280;7755;52.208;6.964;2023-03-31T21:00:10;98829.34;;;10.73;100.00
15308;BME280;7755;52.208;6.964;2023-03-31T21:04:12;98829.91;;;10.70;100.00
15308;BME280;7755;52.208;6.964;2023-03-31T21:08:17;98834.81;;;10.68;100.00
15308;BME280;7755;52.208;6.964;2023-03-31T21:12:21;98830.19;;;10.69;100.00
15308;BME280;7755;52.208;6.964;2023-03-31T21:16:24;98832.09;;;10.68;100.00
15308;BME280;7755;52.208;6.964;2023-03-31T21:20:27;98834.06;;;10.62;100.00
15308;BME280;7755;52.208;6.964;2023-03-31T21:24:33;98839.03;;;10.55;100.00
15308;BME280;7755;52.208;6.964;2023-03-31T21:28:37;98830.59;;;10.57;100.00
15308;BME280;7755;52.208;6.964;2023-03-31T21:32:40;98831.16;;;10.54;100.00
15308;BME280;7755;52.208;6.964;2023-03-31T21:36:43;98828.41;;;10.59;100.00
15308;BME280;7755;52.208;6.964;2023-03-31T21:40:46;98829.97;;;10.65;100.00
15308;BME280;7755;52.208;6.964;2023-03-31T21:44:51;98840.03;;;10.64;100.00
15308;BME280;7755;52.208;6.964;2023-03-31T21:48:59;98831.34;;;10.62;100.00
15308;BME280;7755;52.208;6.964;2023-03-31T21:53:03;98833.25;;;10.62;100.00
15308;BME280;7755;52.208;6.964;2023-03-31T21:57:06;98824.59;;;10.60;100.00
15308;BME280;7755;52.208;6.964;2023-03-31T22:01:10;98825.16;;;10.57;100.00
15308;BME280;7755;52.208;6.964;2023-03-31T22:05:13;98825.44;;;10.55;100.00
15308;BME280;7755;52.208;6.964;2023-03-31T22:09:17;98826.78;;;10.58;100.00